sensor_id;sensor_type;location;lat;lon;timestamp;temperature;humidity
82183;DHT22;71763;52.220;13.000;2024-01-30T00:02:14;0.70;56.50
82183;DHT22;71763;52.220;13.000;2024-01-30T00:04:40;0.70;56.40
82183;DHT22;71763;52.220;13.000;2024-01-30T00:07:05;0.90;56.70
82183;DHT22;71763;52.220;13.000;2024-01-30T00:09:31;0.90;56.70
82183;DHT22;71763;52.220;13.000;2024-01-30T00:11:56;0.80;56.70
82183;DHT22;71763;52.220;13.000;2024-01-30T00:14:22;0.50;56.50
82183;DHT22;71763;52.220;13.000;2024-01-30T00:16:48;0.70;56.70
82183;DHT22;71763;52.220;13.000;2024-01-30T00:19:14;0.80;56.80
82183;DHT22;71763;52.220;13.000;2024-01-30T00:21:39;0.60;56.60
82183;DHT22;71763;52.220;13.000;2024-01-30T00:24:05;0.70;56.70
82183;DHT22;71763;52.220;13.000;2024-01-30T00:26:30;0.70;56.60
82183;DHT22;71763;52.220;13.000;2024-01-30T00:28:56;0.80;56.50
82183;DHT22;71763;52.220;13.000;2024-01-30T00:31:21;0.80;56.50
82183;DHT22;71763;52.220;13.000;2024-01-30T00:33:47;0.80;57.10
82183;DHT22;71763;52.220;13.000;2024-01-30T00:36:12;0.90;56.50
82183;DHT22;71763;52.220;13.000;2024-01-30T00:38:38;1.00;56.60
82183;DHT22;71763;52.220;13.000;2024-01-30T00:41:03;0.90;56.50
82183;DHT22;71763;52.220;13.000;2024-01-30T00:43:29;1.00;56.60
82183;DHT22;71763;52.220;13.000;2024-01-30T00:45:56;0.90;56.50
82183;DHT22;71763;52.220;13.000;2024-01-30T00:48:21;0.90;56.50
82183;DHT22;71763;52.220;13.000;2024-01-30T00:50:47;1.00;56.70
82183;DHT22;71763;52.220;13.000;2024-01-30T00:53:13;1.00;56.70
82183;DHT22;71763;52.220;13.000;2024-01-30T00:55:38;1.20;56.80
82183;DHT22;71763;52.220;13.000;2024-01-30T00:58:04;0.90;56.60
82183;DHT22;71763;52.220;13.000;2024-01-30T01:00:29;0.90;56.80
82183;DHT22;71763;52.220;13.000;2024-01-30T01:02:56;1.10;57.00
82183;DHT22;71763;52.220;13.000;2024-01-30T01:05:21;1.00;56.90
82183;DHT22;71763;52.220;13.000;2024-01-30T01:07:47;0.90;56.90
82183;DHT22;71763;52.220;13.000;2024-01-30T01:10:18;0.90;56.90
82183;DHT22;71763;52.220;13.000;2024-01-30T01:12:44;1.10;57.00
82183;DHT22;71763;52.220;13.000;2024-01-30T01:15:10;0.90;56.80
82183;DHT22;71763;52.220;13.000;2024-01-30T01:17:36;0.90;56.80
82183;DHT22;71763;52.220;13.000;2024-01-30T01:20:02;1.10;57.00
82183;DHT22;71763;52.220;13.000;2024-01-30T01:22:28;1.30;57.20
82183;DHT22;71763;52.220;13.000;2024-01-30T01:24:53;1.00;56.90
82183;DHT22;71763;52.220;13.000;2024-01-30T01:27:19;1.20;57.00
82183;DHT22;71763;52.220;13.000;2024-01-30T01:29:44;1.30;57.00
82183;DHT22;71763;52.220;13.000;2024-01-30T01:32:10;1.30;57.00
82183;DHT22;71763;52.220;13.000;2024-01-30T01:34:36;1.10;56.70
82183;DHT22;71763;52.220;13.000;2024-01-30T01:37:02;1.30;57.00
82183;DHT22;71763;52.220;13.000;2024-01-30T01:39:27;1.10;56.80
82183;DHT22;71763;52.220;13.000;2024-01-30T01:41:53;1.10;56.90
82183;DHT22;71763;52.220;13.000;2024-01-30T01:44:18;1.40;57.80
82183;DHT22;71763;52.220;13.000;2024-01-30T01:46:44;1.20;57.00
82183;DHT22;71763;52.220;13.000;2024-01-30T01:49:10;1.10;57.00
82183;DHT22;71763;52.220;13.000;2024-01-30T01:51:36;1.00;57.00
82183;DHT22;71763;52.220;13.000;2024-01-30T01:54:02;1.00;56.30
82183;DHT22;71763;52.220;13.000;2024-01-30T01:56:28;1.10;57.20
82183;DHT22;71763;52.220;13.000;2024-01-30T01:58:54;1.10;57.30
82183;DHT22;71763;52.220;13.000;2024-01-30T02:01:20;1.00;56.30
82183;DHT22;71763;52.220;13.000;2024-01-30T02:03:46;1.10;57.30
82183;DHT22;71763;52.220;13.000;2024-01-30T02:06:12;1.10;57.80
82183;DHT22;71763;52.220;13.000;2024-01-30T02:08:38;1.00;57.10
82183;DHT22;71763;52.220;13.000;2024-01-30T02:11:04;1.00;57.20
82183;DHT22;71763;52.220;13.000;2024-01-30T02:13:30;1.10;57.40
82183;DHT22;71763;52.220;13.000;2024-01-30T02:15:55;1.00;57.20
82183;DHT22;71763;52.220;13.000;2024-01-30T02:18:21;1.00;57.30
82183;DHT22;71763;52.220;13.000;2024-01-30T02:20:48;1.00;57.90
82183;DHT22;71763;52.220;13.000;2024-01-30T02:23:15;1.10;57.40
82183;DHT22;71763;52.220;13.000;2024-01-30T02:25:41;1.10;57.50
82183;DHT22;71763;52.220;13.000;2024-01-30T02:28:13;1.00;57.40
82183;DHT22;71763;52.220;13.000;2024-01-30T02:30:39;1.00;57.60
82183;DHT22;71763;52.220;13.000;2024-01-30T02:33:05;1.00;57.50
82183;DHT22;71763;52.220;13.000;2024-01-30T02:35:30;1.00;57.50
82183;DHT22;71763;52.220;13.000;2024-01-30T02:37:55;1.00;57.50
82183;DHT22;71763;52.220;13.000;2024-01-30T02:40:21;0.90;57.60
82183;DHT22;71763;52.220;13.000;2024-01-30T02:42:47;1.00;57.80
82183;DHT22;71763;52.220;13.000;2024-01-30T02:45:12;0.90;57.80
82183;DHT22;71763;52.220;13.000;2024-01-30T02:47:38;1.00;57.90
82183;DHT22;71763;52.220;13.000;2024-01-30T02:50:04;0.80;57.70
82183;DHT22;71763;52.220;13.000;2024-01-30T02:52:29;0.90;57.90
82183;DHT22;71763;52.220;13.000;2024-01-30T02:54:55;0.80;57.80
82183;DHT22;71763;52.220;13.000;2024-01-30T02:57:20;0.70;57.70
82183;DHT22;71763;52.220;13.000;2024-01-30T02:59:46;0.80;57.80
82183;DHT22;71763;52.220;13.000;2024-01-30T03:02:11;0.80;57.80
82183;DHT22;71763;52.220;13.000;2024-01-30T03:04:37;0.70;57.80
82183;DHT22;71763;52.220;13.000;2024-01-30T03:07:02;0.80;57.90
82183;DHT22;71763;52.220;13.000;2024-01-30T03:09:28;0.80;58.00
82183;DHT22;71763;52.220;13.000;2024-01-30T03:11:54;0.70;57.90
82183;DHT22;71763;52.220;13.000;2024-01-30T03:14:19;0.90;58.00
82183;DHT22;71763;52.220;13.000;2024-01-30T03:16:45;0.80;58.00
82183;DHT22;71763;52.220;13.000;2024-01-30T03:19:10;0.60;57.80
82183;DHT22;71763;52.220;13.000;2024-01-30T03:21:36;0.60;57.80
82183;DHT22;71763;52.220;13.000;2024-01-30T03:24:01;0.60;57.90
82183;DHT22;71763;52.220;13.000;2024-01-30T03:26:26;0.50;57.70
82183;DHT22;71763;52.220;13.000;2024-01-30T03:28:52;0.60;57.90
82183;DHT22;71763;52.220;13.000;2024-01-30T03:31:17;0.50;57.80
82183;DHT22;71763;52.220;13.000;2024-01-30T03:33:43;0.50;57.90
82183;DHT22;71763;52.220;13.000;2024-01-30T03:36:08;0.50;58.00
82183;DHT22;71763;52.220;13.000;2024-01-30T03:38:34;0.40;58.10
82183;DHT22;71763;52.220;13.000;2024-01-30T03:41:00;0.40;58.10
82183;DHT22;71763;52.220;13.000;2024-01-30T03:43:25;0.70;58.20
82183;DHT22;71763;52.220;13.000;2024-01-30T03:45:51;0.40;58.00
82183;DHT22;71763;52.220;13.000;2024-01-30T03:48:16;0.60;58.20
82183;DHT22;71763;52.220;13.000;2024-01-30T03:50:42;0.50;58.10
82183;DHT22;71763;52.220;13.000;2024-01-30T03:53:07;0.60;58.30
82183;DHT22;71763;52.220;13.000;2024-01-30T03:55:33;0.50;57.30
82183;DHT22;71763;52.220;13.000;2024-01-30T03:57:58;0.40;58.10
82183;DHT22;71763;52.220;13.000;2024-01-30T04:00:24;0.40;58.10
82183;DHT22;71763;52.220;13.000;2024-01-30T04:02:49;0.60;58.90
82183;DHT22;71763;52.220;13.000;2024-01-30T04:05:16;0.40;58.10
82183;DHT22;71763;52.220;13.000;2024-01-30T04:07:42;0.40;58.10
82183;DHT22;71763;52.220;13.000;2024-01-30T04:10:08;0.60;58.30
82183;DHT22;71763;52.220;13.000;2024-01-30T04:12:33;0.40;58.20
82183;DHT22;71763;52.220;13.000;2024-01-30T04:14:59;0.30;58.00
82183;DHT22;71763;52.220;13.000;2024-01-30T04:17:24;0.30;58.10
82183;DHT22;71763;52.220;13.000;2024-01-30T04:19:50;0.40;58.20
82183;DHT22;71763;52.220;13.000;2024-01-30T04:22:15;0.40;58.20
82183;DHT22;71763;52.220;13.000;2024-01-30T04:24:41;0.30;58.20
82183;DHT22;71763;52.220;13.000;2024-01-30T04:27:06;0.20;57.20
82183;DHT22;71763;52.220;13.000;2024-01-30T04:29:31;0.30;58.20
82183;DHT22;71763;52.220;13.000;2024-01-30T04:31:58;0.40;58.40
82183;DHT22;71763;52.220;13.000;2024-01-30T04:34:23;0.30;58.30
82183;DHT22;71763;52.220;13.000;2024-01-30T04:36:49;0.40;58.50
82183;DHT22;71763;52.220;13.000;2024-01-30T04:39:14;0.40;58.40
82183;DHT22;71763;52.220;13.000;2024-01-30T04:41:39;0.40;58.50
82183;DHT22;71763;52.220;13.000;2024-01-30T04:44:05;0.30;57.50
82183;DHT22;71763;52.220;13.000;2024-01-30T04:46:30;0.40;57.70
82183;DHT22;71763;52.220;13.000;2024-01-30T04:48:56;0.30;58.40
82183;DHT22;71763;52.220;13.000;2024-01-30T04:51:21;0.30;58.40
82183;DHT22;71763;52.220;13.000;2024-01-30T04:53:47;0.20;58.30
82183;DHT22;71763;52.220;13.000;2024-01-30T04:56:12;0.40;58.50
82183;DHT22;71763;52.220;13.000;2024-01-30T04:58:37;0.40;58.50
82183;DHT22;71763;52.220;13.000;2024-01-30T05:01:03;0.20;58.30
82183;DHT22;71763;52.220;13.000;2024-01-30T05:03:28;0.20;58.40
82183;DHT22;71763;52.220;13.000;2024-01-30T05:05:54;0.50;58.60
82183;DHT22;71763;52.220;13.000;2024-01-30T05:08:19;0.20;58.30
82183;DHT22;71763;52.220;13.000;2024-01-30T05:10:45;0.40;58.50
82183;DHT22;71763;52.220;13.000;2024-01-30T05:13:11;0.20;59.10
82183;DHT22;71763;52.220;13.000;2024-01-30T05:15:39;0.20;58.40
82183;DHT22;71763;52.220;13.000;2024-01-30T05:18:04;0.40;58.60
82183;DHT22;71763;52.220;13.000;2024-01-30T05:20:29;0.40;58.60
82183;DHT22;71763;52.220;13.000;2024-01-30T05:22:55;0.30;58.60
82183;DHT22;71763;52.220;13.000;2024-01-30T05:25:21;0.30;58.60
82183;DHT22;71763;52.220;13.000;2024-01-30T05:27:46;0.20;58.60
82183;DHT22;71763;52.220;13.000;2024-01-30T05:30:12;0.10;58.50
82183;DHT22;71763;52.220;13.000;2024-01-30T05:32:37;0.10;58.50
82183;DHT22;71763;52.220;13.000;2024-01-30T05:35:03;0.30;58.60
82183;DHT22;71763;52.220;13.000;2024-01-30T05:37:29;0.40;58.70
82183;DHT22;71763;52.220;13.000;2024-01-30T05:39:54;0.20;58.50
82183;DHT22;71763;52.220;13.000;2024-01-30T05:42:20;0.40;58.80
82183;DHT22;71763;52.220;13.000;2024-01-30T05:44:45;0.50;58.80
82183;DHT22;71763;52.220;13.000;2024-01-30T05:47:11;0.30;58.60
82183;DHT22;71763;52.220;13.000;2024-01-30T05:49:36;0.40;58.70
82183;DHT22;71763;52.220;13.000;2024-01-30T05:52:02;0.30;58.60
82183;DHT22;71763;52.220;13.000;2024-01-30T05:54:28;0.40;57.90
82183;DHT22;71763;52.220;13.000;2024-01-30T05:56:53;0.40;58.60
82183;DHT22;71763;52.220;13.000;2024-01-30T05:59:19;0.40;58.60
82183;DHT22;71763;52.220;13.000;2024-01-30T06:01:47;0.40;58.50
82183;DHT22;71763;52.220;13.000;2024-01-30T06:04:13;0.50;58.60
82183;DHT22;71763;52.220;13.000;2024-01-30T06:06:39;0.50;58.60
82183;DHT22;71763;52.220;13.000;2024-01-30T06:09:04;0.30;58.50
82183;DHT22;71763;52.220;13.000;2024-01-30T06:11:29;0.30;58.60
82183;DHT22;71763;52.220;13.000;2024-01-30T06:13:55;0.30;58.50
82183;DHT22;71763;52.220;13.000;2024-01-30T06:16:20;0.40;58.70
82183;DHT22;71763;52.220;13.000;2024-01-30T06:18:47;0.40;58.70
82183;DHT22;71763;52.220;13.000;2024-01-30T06:21:12;0.10;58.40
82183;DHT22;71763;52.220;13.000;2024-01-30T06:23:38;0.40;58.60
82183;DHT22;71763;52.220;13.000;2024-01-30T06:26:03;0.40;58.60
82183;DHT22;71763;52.220;13.000;2024-01-30T06:28:30;0.30;58.50
82183;DHT22;71763;52.220;13.000;2024-01-30T06:30:55;0.40;58.60
82183;DHT22;71763;52.220;13.000;2024-01-30T06:33:21;0.30;58.50
82183;DHT22;71763;52.220;13.000;2024-01-30T06:35:46;0.70;58.80
82183;DHT22;71763;52.220;13.000;2024-01-30T06:38:11;0.60;58.70
82183;DHT22;71763;52.220;13.000;2024-01-30T06:40:38;0.60;58.70
82183;DHT22;71763;52.220;13.000;2024-01-30T06:43:04;0.40;58.60
82183;DHT22;71763;52.220;13.000;2024-01-30T06:45:29;0.50;58.60
82183;DHT22;71763;52.220;13.000;2024-01-30T06:47:55;0.40;58.50
82183;DHT22;71763;52.220;13.000;2024-01-30T06:50:20;0.60;58.70
82183;DHT22;71763;52.220;13.000;2024-01-30T06:52:46;0.60;58.70
82183;DHT22;71763;52.220;13.000;2024-01-30T06:55:11;0.50;58.60
82183;DHT22;71763;52.220;13.000;2024-01-30T06:57:37;0.80;58.80
82183;DHT22;71763;52.220;13.000;2024-01-30T07:00:03;0.50;58.50
82183;DHT22;71763;52.220;13.000;2024-01-30T07:02:28;0.60;58.60
82183;DHT22;71763;52.220;13.000;2024-01-30T07:04:54;0.80;58.70
82183;DHT22;71763;52.220;13.000;2024-01-30T07:07:19;0.80;58.70
82183;DHT22;71763;52.220;13.000;2024-01-30T07:09:44;0.80;58.60
82183;DHT22;71763;52.220;13.000;2024-01-30T07:12:10;0.70;58.50
82183;DHT22;71763;52.220;13.000;2024-01-30T07:14:35;0.60;57.40
82183;DHT22;71763;52.220;13.000;2024-01-30T07:17:01;0.80;58.40
82183;DHT22;71763;52.220;13.000;2024-01-30T07:19:27;0.90;58.50
82183;DHT22;71763;52.220;13.000;2024-01-30T07:21:52;1.00;58.60
82183;DHT22;71763;52.220;13.000;2024-01-30T07:24:18;0.90;58.40
82183;DHT22;71763;52.220;13.000;2024-01-30T07:26:43;0.80;58.20
82183;DHT22;71763;52.220;13.000;2024-01-30T07:29:08;1.10;58.50
82183;DHT22;71763;52.220;13.000;2024-01-30T07:31:34;1.20;58.50
82183;DHT22;71763;52.220;13.000;2024-01-30T07:33:59;1.10;58.30
82183;DHT22;71763;52.220;13.000;2024-01-30T07:36:25;1.10;58.30
82183;DHT22;71763;52.220;13.000;2024-01-30T07:38:51;1.20;58.30
82183;DHT22;71763;52.220;13.000;2024-01-30T07:41:19;1.10;58.20
82183;DHT22;71763;52.220;13.000;2024-01-30T07:43:45;1.40;58.40
82183;DHT22;71763;52.220;13.000;2024-01-30T07:46:10;1.30;58.20
82183;DHT22;71763;52.220;13.000;2024-01-30T07:48:35;1.40;58.10
82183;DHT22;71763;52.220;13.000;2024-01-30T07:51:01;1.80;58.20
82183;DHT22;71763;52.220;13.000;2024-01-30T07:53:28;1.80;57.80
82183;DHT22;71763;52.220;13.000;2024-01-30T07:55:53;1.80;57.50
82183;DHT22;71763;52.220;13.000;2024-01-30T07:58:19;2.10;57.40
82183;DHT22;71763;52.220;13.000;2024-01-30T08:00:44;2.20;57.50
82183;DHT22;71763;52.220;13.000;2024-01-30T08:03:10;2.30;57.10
82183;DHT22;71763;52.220;13.000;2024-01-30T08:05:35;2.50;57.00
82183;DHT22;71763;52.220;13.000;2024-01-30T08:08:01;2.60;56.80
82183;DHT22;71763;52.220;13.000;2024-01-30T08:10:26;2.60;56.70
82183;DHT22;71763;52.220;13.000;2024-01-30T08:12:52;2.80;56.80
82183;DHT22;71763;52.220;13.000;2024-01-30T08:15:17;2.80;56.60
82183;DHT22;71763;52.220;13.000;2024-01-30T08:17:43;2.90;56.80
82183;DHT22;71763;52.220;13.000;2024-01-30T08:20:10;3.00;56.80
82183;DHT22;71763;52.220;13.000;2024-01-30T08:22:40;3.00;56.80
82183;DHT22;71763;52.220;13.000;2024-01-30T08:25:06;3.00;56.90
82183;DHT22;71763;52.220;13.000;2024-01-30T08:27:31;3.10;56.90
82183;DHT22;71763;52.220;13.000;2024-01-30T08:29:57;3.20;56.90
82183;DHT22;71763;52.220;13.000;2024-01-30T08:32:22;3.20;56.80
82183;DHT22;71763;52.220;13.000;2024-01-30T08:34:49;3.20;56.80
82183;DHT22;71763;52.220;13.000;2024-01-30T08:37:14;3.30;56.80
82183;DHT22;71763;52.220;13.000;2024-01-30T08:39:42;3.40;56.50
82183;DHT22;71763;52.220;13.000;2024-01-30T08:42:07;3.60;56.40
82183;DHT22;71763;52.220;13.000;2024-01-30T08:44:33;3.90;56.10
82183;DHT22;71763;52.220;13.000;2024-01-30T08:46:58;4.20;55.50
82183;DHT22;71763;52.220;13.000;2024-01-30T08:49:24;4.50;55.00
82183;DHT22;71763;52.220;13.000;2024-01-30T08:51:49;4.80;54.70
82183;DHT22;71763;52.220;13.000;2024-01-30T08:54:15;4.90;54.20
82183;DHT22;71763;52.220;13.000;2024-01-30T08:56:41;5.20;54.10
82183;DHT22;71763;52.220;13.000;2024-01-30T08:59:06;5.30;53.90
82183;DHT22;71763;52.220;13.000;2024-01-30T09:01:32;5.40;53.70
82183;DHT22;71763;52.220;13.000;2024-01-30T09:03:57;5.50;53.60
82183;DHT22;71763;52.220;13.000;2024-01-30T09:06:22;5.50;53.70
82183;DHT22;71763;52.220;13.000;2024-01-30T09:08:49;5.50;53.90
82183;DHT22;71763;52.220;13.000;2024-01-30T09:11:14;5.60;54.10
82183;DHT22;71763;52.220;13.000;2024-01-30T09:13:40;5.60;54.10
82183;DHT22;71763;52.220;13.000;2024-01-30T09:16:06;5.70;54.00
82183;DHT22;71763;52.220;13.000;2024-01-30T09:18:32;5.80;54.00
82183;DHT22;71763;52.220;13.000;2024-01-30T09:20:57;5.90;54.00
82183;DHT22;71763;52.220;13.000;2024-01-30T09:23:23;6.00;54.00
82183;DHT22;71763;52.220;13.000;2024-01-30T09:25:49;6.10;54.00
82183;DHT22;71763;52.220;13.000;2024-01-30T09:28:16;6.40;53.90
82183;DHT22;71763;52.220;13.000;2024-01-30T09:30:42;6.80;53.10
82183;DHT22;71763;52.220;13.000;2024-01-30T09:33:07;7.40;52.20
82183;DHT22;71763;52.220;13.000;2024-01-30T09:35:33;8.40;51.40
82183;DHT22;71763;52.220;13.000;2024-01-30T09:37:59;9.40;49.50
82183;DHT22;71763;52.220;13.000;2024-01-30T09:40:24;9.60;48.10
82183;DHT22;71763;52.220;13.000;2024-01-30T09:42:50;9.50;48.30
82183;DHT22;71763;52.220;13.000;2024-01-30T09:45:17;9.30;49.00
82183;DHT22;71763;52.220;13.000;2024-01-30T09:47:43;9.30;49.50
82183;DHT22;71763;52.220;13.000;2024-01-30T09:50:10;9.30;49.70
82183;DHT22;71763;52.220;13.000;2024-01-30T09:52:35;9.20;49.80
82183;DHT22;71763;52.220;13.000;2024-01-30T09:55:01;9.20;50.10
82183;DHT22;71763;52.220;13.000;2024-01-30T09:57:27;9.20;50.30
82183;DHT22;71763;52.220;13.000;2024-01-30T09:59:53;9.20;50.30
82183;DHT22;71763;52.220;13.000;2024-01-30T10:02:19;9.10;50.70
82183;DHT22;71763;52.220;13.000;2024-01-30T10:04:47;9.20;51.00
82183;DHT22;71763;52.220;13.000;2024-01-30T10:07:13;9.40;50.50
82183;DHT22;71763;52.220;13.000;2024-01-30T10:09:39;9.80;50.10
82183;DHT22;71763;52.220;13.000;2024-01-30T10:12:05;10.00;48.70
82183;DHT22;71763;52.220;13.000;2024-01-30T10:14:31;10.20;48.10
82183;DHT22;71763;52.220;13.000;2024-01-30T10:16:57;10.50;47.80
82183;DHT22;71763;52.220;13.000;2024-01-30T10:19:22;10.50;47.10
82183;DHT22;71763;52.220;13.000;2024-01-30T10:21:48;10.40;47.30
82183;DHT22;71763;52.220;13.000;2024-01-30T10:24:13;10.30;47.80
82183;DHT22;71763;52.220;13.000;2024-01-30T10:26:40;10.20;48.10
82183;DHT22;71763;52.220;13.000;2024-01-30T10:29:05;10.20;48.30
82183;DHT22;71763;52.220;13.000;2024-01-30T10:31:31;10.20;48.50
82183;DHT22;71763;52.220;13.000;2024-01-30T10:33:56;10.10;48.70
82183;DHT22;71763;52.220;13.000;2024-01-30T10:36:24;9.90;49.90
82183;DHT22;71763;52.220;13.000;2024-01-30T10:38:50;9.70;50.30
82183;DHT22;71763;52.220;13.000;2024-01-30T10:41:16;9.50;50.70
82183;DHT22;71763;52.220;13.000;2024-01-30T10:43:47;9.30;51.20
82183;DHT22;71763;52.220;13.000;2024-01-30T10:46:18;9.20;51.50
82183;DHT22;71763;52.220;13.000;2024-01-30T10:48:46;9.00;51.90
82183;DHT22;71763;52.220;13.000;2024-01-30T10:51:14;8.90;52.10
82183;DHT22;71763;52.220;13.000;2024-01-30T10:53:39;8.70;52.00
82183;DHT22;71763;52.220;13.000;2024-01-30T10:56:05;8.50;51.80
82183;DHT22;71763;52.220;13.000;2024-01-30T10:58:31;8.40;52.30
82183;DHT22;71763;52.220;13.000;2024-01-30T11:00:56;8.30;52.50
82183;DHT22;71763;52.220;13.000;2024-01-30T11:03:22;8.30;52.70
82183;DHT22;71763;52.220;13.000;2024-01-30T11:05:51;8.20;52.70
82183;DHT22;71763;52.220;13.000;2024-01-30T11:08:26;8.20;52.70
82183;DHT22;71763;52.220;13.000;2024-01-30T11:10:57;8.20;52.80
82183;DHT22;71763;52.220;13.000;2024-01-30T11:13:29;8.20;52.70
82183;DHT22;71763;52.220;13.000;2024-01-30T11:15:54;8.20;52.70
82183;DHT22;71763;52.220;13.000;2024-01-30T11:18:26;8.30;52.60
82183;DHT22;71763;52.220;13.000;2024-01-30T11:32:26;8.30;52.60
82183;DHT22;71763;52.220;13.000;2024-01-30T11:34:52;8.60;52.00
82183;DHT22;71763;52.220;13.000;2024-01-30T11:37:18;8.60;52.10
82183;DHT22;71763;52.220;13.000;2024-01-30T11:39:45;8.70;52.00
82183;DHT22;71763;52.220;13.000;2024-01-30T11:42:11;8.80;52.10
82183;DHT22;71763;52.220;13.000;2024-01-30T11:44:36;8.80;52.10
82183;DHT22;71763;52.220;13.000;2024-01-30T11:47:02;8.90;52.20
82183;DHT22;71763;52.220;13.000;2024-01-30T11:49:28;8.90;52.10
82183;DHT22;71763;52.220;13.000;2024-01-30T11:51:54;8.90;52.10
82183;DHT22;71763;52.220;13.000;2024-01-30T11:54:19;9.00;52.20
82183;DHT22;71763;52.220;13.000;2024-01-30T11:56:45;9.00;52.90
82183;DHT22;71763;52.220;13.000;2024-01-30T11:59:10;9.10;52.30
82183;DHT22;71763;52.220;13.000;2024-01-30T12:01:36;9.10;52.30
82183;DHT22;71763;52.220;13.000;2024-01-30T12:04:02;9.10;52.30
82183;DHT22;71763;52.220;13.000;2024-01-30T12:06:28;9.20;52.40
82183;DHT22;71763;52.220;13.000;2024-01-30T12:08:57;9.30;52.50
82183;DHT22;71763;52.220;13.000;2024-01-30T12:11:24;9.30;52.50
82183;DHT22;71763;52.220;13.000;2024-01-30T12:13:50;9.30;52.50
82183;DHT22;71763;52.220;13.000;2024-01-30T12:16:16;9.40;52.50
82183;DHT22;71763;52.220;13.000;2024-01-30T12:18:41;9.50;52.60
82183;DHT22;71763;52.220;13.000;2024-01-30T12:21:07;9.60;52.70
82183;DHT22;71763;52.220;13.000;2024-01-30T12:23:34;9.70;52.40
82183;DHT22;71763;52.220;13.000;2024-01-30T12:26:00;9.80;52.10
82183;DHT22;71763;52.220;13.000;2024-01-30T12:28:47;9.90;52.10
82183;DHT22;71763;52.220;13.000;2024-01-30T12:31:12;9.90;51.90
82183;DHT22;71763;52.220;13.000;2024-01-30T12:33:38;9.90;51.90
82183;DHT22;71763;52.220;13.000;2024-01-30T12:36:03;9.90;51.90
82183;DHT22;71763;52.220;13.000;2024-01-30T12:38:29;10.00;51.20
82183;DHT22;71763;52.220;13.000;2024-01-30T12:40:55;9.90;52.10
82183;DHT22;71763;52.220;13.000;2024-01-30T12:43:21;9.90;52.20
82183;DHT22;71763;52.220;13.000;2024-01-30T12:45:47;9.90;52.30
82183;DHT22;71763;52.220;13.000;2024-01-30T12:48:12;9.90;52.50
82183;DHT22;71763;52.220;13.000;2024-01-30T12:50:37;9.80;52.60
82183;DHT22;71763;52.220;13.000;2024-01-30T12:53:03;9.80;52.90
82183;DHT22;71763;52.220;13.000;2024-01-30T12:55:29;9.80;53.50
82183;DHT22;71763;52.220;13.000;2024-01-30T12:57:55;9.70;52.80
82183;DHT22;71763;52.220;13.000;2024-01-30T13:00:21;9.80;52.90
82183;DHT22;71763;52.220;13.000;2024-01-30T13:02:47;9.80;52.90
82183;DHT22;71763;52.220;13.000;2024-01-30T13:05:13;9.80;52.90
82183;DHT22;71763;52.220;13.000;2024-01-30T13:07:38;9.80;52.90
82183;DHT22;71763;52.220;13.000;2024-01-30T13:10:04;9.80;52.90
82183;DHT22;71763;52.220;13.000;2024-01-30T13:12:30;9.80;52.90
82183;DHT22;71763;52.220;13.000;2024-01-30T13:14:57;9.80;52.90
82183;DHT22;71763;52.220;13.000;2024-01-30T13:17:22;9.80;52.90
82183;DHT22;71763;52.220;13.000;2024-01-30T13:19:48;9.80;52.90
82183;DHT22;71763;52.220;13.000;2024-01-30T13:22:17;9.80;52.90
82183;DHT22;71763;52.220;13.000;2024-01-30T13:24:42;9.80;52.90
82183;DHT22;71763;52.220;13.000;2024-01-30T13:27:08;9.80;52.90
82183;DHT22;71763;52.220;13.000;2024-01-30T13:29:34;9.90;53.00
82183;DHT22;71763;52.220;13.000;2024-01-30T13:31:59;9.90;53.00
82183;DHT22;71763;52.220;13.000;2024-01-30T13:34:25;9.80;52.90
82183;DHT22;71763;52.220;13.000;2024-01-30T13:36:50;9.80;52.90
82183;DHT22;71763;52.220;13.000;2024-01-30T13:39:16;9.80;52.90
82183;DHT22;71763;52.220;13.000;2024-01-30T13:41:41;9.80;52.90
82183;DHT22;71763;52.220;13.000;2024-01-30T13:44:07;9.80;52.90
82183;DHT22;71763;52.220;13.000;2024-01-30T13:46:34;9.80;52.90
82183;DHT22;71763;52.220;13.000;2024-01-30T13:48:59;9.70;52.80
82183;DHT22;71763;52.220;13.000;2024-01-30T13:51:25;9.70;52.80
82183;DHT22;71763;52.220;13.000;2024-01-30T13:53:50;9.60;52.70
82183;DHT22;71763;52.220;13.000;2024-01-30T13:56:16;9.70;52.80
82183;DHT22;71763;52.220;13.000;2024-01-30T13:58:41;9.60;52.70
82183;DHT22;71763;52.220;13.000;2024-01-30T14:01:07;9.60;52.70
82183;DHT22;71763;52.220;13.000;2024-01-30T14:03:32;9.60;52.70
82183;DHT22;71763;52.220;13.000;2024-01-30T14:05:58;9.60;52.70
82183;DHT22;71763;52.220;13.000;2024-01-30T14:08:23;9.60;52.70
82183;DHT22;71763;52.220;13.000;2024-01-30T14:10:52;9.60;52.70
82183;DHT22;71763;52.220;13.000;2024-01-30T14:13:17;9.60;52.70
82183;DHT22;71763;52.220;13.000;2024-01-30T14:15:43;9.60;52.70
82183;DHT22;71763;52.220;13.000;2024-01-30T14:18:08;9.60;52.70
82183;DHT22;71763;52.220;13.000;2024-01-30T14:20:34;9.50;52.70
82183;DHT22;71763;52.220;13.000;2024-01-30T14:22:59;9.50;52.60
82183;DHT22;71763;52.220;13.000;2024-01-30T14:25:25;9.50;52.60
82183;DHT22;71763;52.220;13.000;2024-01-30T14:27:51;9.50;52.60
82183;DHT22;71763;52.220;13.000;2024-01-30T14:30:16;9.40;52.60
82183;DHT22;71763;52.220;13.000;2024-01-30T14:32:42;9.40;52.70
82183;DHT22;71763;52.220;13.000;2024-01-30T14:35:10;9.40;52.90
82183;DHT22;71763;52.220;13.000;2024-01-30T14:37:35;9.30;52.90
82183;DHT22;71763;52.220;13.000;2024-01-30T14:40:01;9.30;53.20
82183;DHT22;71763;52.220;13.000;2024-01-30T14:42:26;9.30;53.20
82183;DHT22;71763;52.220;13.000;2024-01-30T14:44:56;9.20;53.30
82183;DHT22;71763;52.220;13.000;2024-01-30T14:47:22;9.20;53.30
82183;DHT22;71763;52.220;13.000;2024-01-30T14:49:47;9.20;53.50
82183;DHT22;71763;52.220;13.000;2024-01-30T14:52:14;9.10;53.50
82183;DHT22;71763;52.220;13.000;2024-01-30T14:54:40;9.00;53.50
82183;DHT22;71763;52.220;13.000;2024-01-30T14:57:05;9.00;53.60
82183;DHT22;71763;52.220;13.000;2024-01-30T14:59:31;9.00;53.70
82183;DHT22;71763;52.220;13.000;2024-01-30T15:01:56;8.90;53.70
82183;DHT22;71763;52.220;13.000;2024-01-30T15:04:22;8.90;53.80
82183;DHT22;71763;52.220;13.000;2024-01-30T15:06:48;8.80;53.80
82183;DHT22;71763;52.220;13.000;2024-01-30T15:09:14;8.80;53.80
82183;DHT22;71763;52.220;13.000;2024-01-30T15:11:40;8.80;53.90
82183;DHT22;71763;52.220;13.000;2024-01-30T15:14:06;8.70;53.90
82183;DHT22;71763;52.220;13.000;2024-01-30T15:16:31;8.70;54.00
82183;DHT22;71763;52.220;13.000;2024-01-30T15:18:57;8.60;54.00
82183;DHT22;71763;52.220;13.000;2024-01-30T15:21:22;8.50;54.00
82183;DHT22;71763;52.220;13.000;2024-01-30T15:23:48;8.50;54.10
82183;DHT22;71763;52.220;13.000;2024-01-30T15:26:14;8.50;54.30
82183;DHT22;71763;52.220;13.000;2024-01-30T15:28:39;8.40;54.30
82183;DHT22;71763;52.220;13.000;2024-01-30T15:31:05;8.30;54.30
82183;DHT22;71763;52.220;13.000;2024-01-30T15:33:31;8.30;54.50